Time;durP1;ratioP1;P1;durP2;ratioP2;P2;SDS_P1;SDS_P2;PMS_P1;PMS_P2;Temp;Humidity;BMP_temperature;BMP_pressure;BME280_temperature;BME280_humidity;BME280_pressure;Samples;Min_cycle;Max_cycle;Signal;HPM_P1;HPM_P2
2021/12/11 00:00:56;;;;;;;138.30;33.55;;;-2.70;99.90;;;;;;5050892;28;20386;-76
2021/12/11 00:03:26;;;;;;;193.50;40.22;;;-2.70;99.90;;;;;;5050944;28;20028;-76
2021/12/11 00:06:02;;;;;;;145.13;34.28;;;-2.70;99.90;;;;;;5050881;28;20065;-76
2021/12/11 00:08:30;;;;;;;106.28;31.85;;;-2.80;99.90;;;;;;5050821;28;20059;-76
2021/12/11 00:11:05;;;;;;;141.45;34.03;;;-2.80;99.90;;;;;;5050729;28;20024;-75
2021/12/11 00:13:32;;;;;;;165.05;39.03;;;-2.80;99.90;;;;;;5050555;28;20075;-76
2021/12/11 00:15:59;;;;;;;95.93;32.00;;;-2.80;99.90;;;;;;5049508;28;20165;-76
2021/12/11 00:18:28;;;;;;;154.40;42.47;;;-2.80;99.90;;;;;;5050654;28;20069;-76
2021/12/11 00:21:15;;;;;;;161.65;42.78;;;-2.80;99.90;;;;;;5050583;28;20044;-76
2021/12/11 00:23:51;;;;;;;124.53;36.63;;;-2.80;99.90;;;;;;5050651;28;20025;-75
2021/12/11 00:26:27;;;;;;;123.13;41.63;;;-2.80;99.90;;;;;;5050637;28;20036;-75
2021/12/11 00:28:53;;;;;;;130.13;38.90;;;-2.70;99.90;;;;;;5050591;28;20025;-75
2021/12/11 00:31:19;;;;;;;105.82;36.80;;;-2.70;99.90;;;;;;5049257;28;20081;-76
2021/12/11 00:33:46;;;;;;;93.03;33.58;;;-2.70;99.90;;;;;;5050345;28;20112;-75
2021/12/11 00:36:16;;;;;;;109.50;34.50;;;-2.80;99.90;;;;;;5050477;28;20017;-76
2021/12/11 00:38:43;;;;;;;77.78;32.88;;;-2.80;99.90;;;;;;5050448;28;20097;-75
2021/12/11 00:41:11;;;;;;;95.07;34.08;;;-2.70;99.90;;;;;;5049065;28;20021;-75
2021/12/11 00:43:40;;;;;;;141.73;41.33;;;-2.70;99.90;;;;;;5013328;28;1066857;-76
2021/12/11 00:46:10;;;;;;;97.15;34.95;;;-2.70;99.90;;;;;;5051354;28;20267;-75
2021/12/11 00:48:37;;;;;;;121.50;36.78;;;-2.70;99.90;;;;;;5050023;28;20025;-75
2021/12/11 00:51:11;;;;;;;118.25;38.85;;;-2.70;99.90;;;;;;5049967;28;20403;-75
2021/12/11 00:53:53;;;;;;;131.18;45.00;;;-2.70;99.90;;;;;;5049833;28;20458;-75
2021/12/11 00:56:23;;;;;;;113.03;46.85;;;-2.70;99.90;;;;;;5049918;28;20101;-76
2021/12/11 00:58:52;;;;;;;114.45;42.45;;;-2.70;99.90;;;;;;5051059;28;20044;-75
2021/12/11 01:01:22;;;;;;;119.03;42.92;;;-2.60;99.90;;;;;;5051059;28;20028;-75
2021/12/11 01:04:03;;;;;;;118.00;38.63;;;-2.60;99.90;;;;;;5050187;28;20021;-75
2021/12/11 01:06:37;;;;;;;91.80;35.72;;;-2.60;99.90;;;;;;5050938;28;20124;-76
2021/12/11 01:09:10;;;;;;;148.23;65.10;;;-2.60;99.90;;;;;;5050962;28;20021;-75
2021/12/11 01:12:03;;;;;;;192.00;88.72;;;-2.60;99.90;;;;;;5049663;28;20025;-76
2021/12/11 01:14:42;;;;;;;122.60;46.40;;;-2.60;99.90;;;;;;5050770;28;20041;-75
2021/12/11 01:17:21;;;;;;;110.03;42.35;;;-2.80;99.90;;;;;;5050844;28;20024;-76
2021/12/11 01:19:51;;;;;;;109.40;45.40;;;-2.90;99.90;;;;;;5049503;28;20024;-76
2021/12/11 01:22:35;;;;;;;125.38;48.15;;;-2.90;99.90;;;;;;5049485;28;20048;-76
2021/12/11 01:25:07;;;;;;;121.53;50.80;;;-2.90;99.90;;;;;;5050765;28;20482;-76
2021/12/11 01:27:35;;;;;;;143.25;52.42;;;-3.00;99.90;;;;;;5049423;28;20116;-77
2021/12/11 01:30:02;;;;;;;157.88;65.82;;;-3.00;99.90;;;;;;5049307;28;20025;-76
2021/12/11 01:32:30;;;;;;;119.97;47.15;;;-3.00;99.90;;;;;;5050366;28;20056;-76
2021/12/11 01:34:57;;;;;;;126.50;48.13;;;-3.00;99.90;;;;;;5050557;28;20048;-76
2021/12/11 01:37:23;;;;;;;116.43;41.08;;;-3.00;99.90;;;;;;5050469;28;20036;-76
2021/12/11 01:39:51;;;;;;;125.50;46.42;;;-3.00;99.90;;;;;;5049107;28;20029;-76
2021/12/11 01:42:21;;;;;;;111.00;41.35;;;-3.00;99.90;;;;;;5050476;28;20022;-76
2021/12/11 01:44:48;;;;;;;107.45;42.50;;;-2.90;99.90;;;;;;5048935;28;20044;-75
2021/12/11 01:47:18;;;;;;;114.25;42.15;;;-2.90;99.90;;;;;;5049091;28;20027;-75
2021/12/11 01:49:49;;;;;;;112.22;40.15;;;-2.90;99.90;;;;;;5050352;28;20029;-76
2021/12/11 01:52:29;;;;;;;109.75;39.15;;;-2.90;99.90;;;;;;5050355;28;20025;-75
2021/12/11 01:54:55;;;;;;;127.50;42.28;;;-3.00;99.90;;;;;;5050288;28;20033;-75
2021/12/11 01:57:26;;;;;;;123.65;40.95;;;-2.90;99.90;;;;;;5050117;28;20025;-75
2021/12/11 01:59:57;;;;;;;125.90;40.67;;;-2.90;99.90;;;;;;5050183;28;20017;-76
2021/12/11 02:02:34;;;;;;;147.35;45.40;;;-2.90;99.90;;;;;;5050200;28;20033;-76
2021/12/11 02:05:00;;;;;;;234.77;60.95;;;-2.90;99.90;;;;;;5050114;28;20478;-76
2021/12/11 02:07:35;;;;;;;200.23;49.17;;;-2.90;99.90;;;;;;5048874;28;20052;-76
2021/12/11 02:10:09;;;;;;;139.18;41.03;;;-2.90;99.90;;;;;;5050079;28;20017;-76
2021/12/11 02:12:39;;;;;;;92.88;38.50;;;-2.90;99.90;;;;;;5049007;28;20086;-77
2021/12/11 02:15:13;;;;;;;158.23;43.03;;;-2.90;99.90;;;;;;5048558;28;20059;-76
2021/12/11 02:17:52;;;;;;;162.32;55.25;;;-2.90;99.90;;;;;;5048739;28;20024;-76
2021/12/11 02:20:28;;;;;;;260.67;62.72;;;-2.90;99.90;;;;;;5049908;28;20021;-76
2021/12/11 02:22:54;;;;;;;120.32;42.47;;;-2.90;99.90;;;;;;5049934;28;20025;-76
2021/12/11 02:25:24;;;;;;;100.22;41.05;;;-2.90;99.90;;;;;;5048531;28;20025;-76
2021/12/11 02:28:07;;;;;;;128.88;35.97;;;-2.80;99.90;;;;;;5049862;28;20021;-76
2021/12/11 02:31:03;;;;;;;113.43;33.63;;;-2.80;99.90;;;;;;5048325;28;20029;-76
2021/12/11 02:33:46;;;;;;;161.82;35.90;;;-2.80;99.90;;;;;;5049602;28;20423;-75
2021/12/11 02:36:17;;;;;;;;;;;-2.80;99.90;;;;;;5050235;28;20017;-75
2021/12/11 02:39:01;;;;;;;155.82;32.72;;;-2.80;99.90;;;;;;5048460;28;19908;-75
2021/12/11 02:41:49;;;;;;;143.65;33.08;;;-2.90;99.90;;;;;;5049678;28;20036;-75
2021/12/11 02:44:29;;;;;;;99.75;31.58;;;-3.00;99.90;;;;;;5048293;28;20033;-76
2021/12/11 02:46:58;;;;;;;128.15;36.08;;;-3.00;99.90;;;;;;5048419;28;20111;-75
2021/12/11 02:49:59;;;;;;;97.70;34.03;;;-3.00;99.90;;;;;;5049425;28;20029;-76
2021/12/11 02:52:45;;;;;;;127.28;40.70;;;-3.00;99.90;;;;;;5004975;28;20475;-76
2021/12/11 02:55:17;;;;;;;200.25;48.25;;;-2.90;99.90;;;;;;5049443;28;20021;-76
2021/12/11 02:57:53;;;;;;;138.90;44.53;;;-3.00;99.90;;;;;;5049493;28;20495;-76
2021/12/11 03:00:34;;;;;;;126.68;40.90;;;-3.00;99.90;;;;;;5048167;28;20320;-76
2021/12/11 03:03:05;;;;;;;107.97;40.65;;;-2.90;99.90;;;;;;5048171;28;20095;-76
2021/12/11 03:05:43;;;;;;;169.80;48.00;;;-2.90;99.90;;;;;;5049294;28;20021;-76
2021/12/11 03:08:12;;;;;;;198.93;42.33;;;-2.90;99.90;;;;;;5049372;28;20029;-76
2021/12/11 03:10:40;;;;;;;188.07;48.90;;;-3.00;99.90;;;;;;5049290;28;20474;-76
2021/12/11 03:13:05;;;;;;;145.13;38.83;;;-3.10;99.90;;;;;;5049193;28;20048;-76
2021/12/11 03:15:32;;;;;;;244.20;52.58;;;-3.10;99.90;;;;;;5049165;28;20018;-76
2021/12/11 03:18:00;;;;;;;184.60;48.47;;;-3.10;99.90;;;;;;5047928;28;20524;-76
2021/12/11 03:20:26;;;;;;;213.50;46.47;;;-3.20;99.90;;;;;;5049083;28;20021;-75
2021/12/11 03:22:53;;;;;;;222.45;45.15;;;-3.20;99.90;;;;;;5049210;28;20096;-76
2021/12/11 03:25:23;;;;;;;143.73;41.75;;;-3.30;99.90;;;;;;5049069;28;20104;-75
2021/12/11 03:27:49;;;;;;;226.73;48.75;;;-3.30;99.90;;;;;;5050209;28;20059;-76
2021/12/11 03:30:23;;;;;;;193.50;42.15;;;-3.30;99.90;;;;;;5051198;28;20019;-75
2021/12/11 03:32:59;;;;;;;213.48;46.70;;;-3.30;99.90;;;;;;5051173;28;20032;-76
2021/12/11 03:35:26;;;;;;;166.32;40.85;;;-3.40;99.90;;;;;;5051156;28;20419;-76
2021/12/11 03:37:52;;;;;;;218.13;38.22;;;-3.40;99.90;;;;;;5052478;28;20040;-76
2021/12/11 03:40:19;;;;;;;197.73;39.50;;;-3.40;99.90;;;;;;5052129;28;20028;-76
2021/12/11 03:42:46;;;;;;;272.85;60.30;;;-3.50;99.90;;;;;;5052310;28;20135;-76
2021/12/11 03:45:17;;;;;;;216.02;49.53;;;-3.50;99.90;;;;;;5052300;28;20069;-75
2021/12/11 03:47:47;;;;;;;277.15;74.68;;;-3.50;99.90;;;;;;5052303;28;20493;-75
2021/12/11 03:50:16;;;;;;;309.73;79.00;;;-3.50;99.90;;;;;;5052208;28;20112;-76
2021/12/11 03:52:44;;;;;;;260.85;64.88;;;-3.50;99.90;;;;;;5050861;28;20027;-76
2021/12/11 03:55:12;;;;;;;219.27;42.08;;;-3.50;99.90;;;;;;5052405;28;20605;-76
2021/12/11 03:57:39;;;;;;;168.63;49.10;;;-3.60;99.90;;;;;;5050826;28;20466;-76
2021/12/11 04:00:10;;;;;;;219.43;56.65;;;-3.50;99.90;;;;;;5051965;28;20025;-76
2021/12/11 04:02:36;;;;;;;258.58;68.25;;;-3.50;99.90;;;;;;5052086;28;20492;-76
2021/12/11 04:05:05;;;;;;;185.38;46.28;;;-3.50;99.90;;;;;;5051976;28;20032;-76
2021/12/11 04:07:42;;;;;;;183.82;39.63;;;-3.50;99.90;;;;;;5051954;28;20490;-76
2021/12/11 04:10:09;;;;;;;141.10;37.63;;;-3.50;99.90;;;;;;5050516;28;20050;-76
2021/12/11 04:12:34;;;;;;;84.68;30.10;;;-3.50;99.90;;;;;;5051689;28;20028;-76
2021/12/11 04:15:01;;;;;;;247.35;54.25;;;-3.50;99.90;;;;;;5051787;28;20021;-75
2021/12/11 04:17:28;;;;;;;212.35;64.78;;;-3.60;99.90;;;;;;5051790;28;20513;-76
2021/12/11 04:19:57;;;;;;;104.68;34.65;;;-3.50;99.90;;;;;;5050415;28;20025;-76
2021/12/11 04:22:23;;;;;;;89.88;32.55;;;-3.50;99.90;;;;;;5051739;28;20025;-76
2021/12/11 04:24:49;;;;;;;95.55;34.28;;;-3.50;99.90;;;;;;5051610;28;20056;-76
2021/12/11 04:27:18;;;;;;;140.60;48.75;;;-3.60;99.90;;;;;;5051608;28;20493;-77
2021/12/11 04:29:47;;;;;;;155.93;40.22;;;-3.50;99.90;;;;;;5051481;28;20390;-76
2021/12/11 04:32:14;;;;;;;108.22;35.85;;;-3.50;99.90;;;;;;5050320;28;20017;-75
2021/12/11 04:34:40;;;;;;;102.15;36.95;;;-3.50;99.90;;;;;;5051382;28;20051;-76
2021/12/11 04:37:30;;;;;;;123.15;41.67;;;-3.50;99.90;;;;;;5051549;28;20526;-76
2021/12/11 04:40:02;;;;;;;136.73;40.55;;;-3.50;99.90;;;;;;5050018;28;20081;-76
2021/12/11 04:42:57;;;;;;;108.53;40.50;;;-3.50;99.90;;;;;;5051470;28;20029;-76
2021/12/11 04:45:35;;;;;;;131.70;47.15;;;-3.50;99.90;;;;;;5051345;28;20029;-75
2021/12/11 04:48:15;;;;;;;171.85;64.18;;;-3.50;99.90;;;;;;5051400;28;20025;-76
2021/12/11 04:50:59;;;;;;;121.25;46.63;;;-3.60;99.90;;;;;;5051277;28;20586;-76
2021/12/11 04:53:49;;;;;;;145.18;52.67;;;-3.60;99.90;;;;;;5051160;28;20513;-76
2021/12/11 04:59:50;;;;;;;121.88;40.33;;;-3.60;99.90;;;;;;5051173;28;20032;-76
2021/12/11 05:04:37;;;;;;;102.13;38.13;;;-3.50;99.90;;;;;;5051304;28;20032;-76
2021/12/11 05:07:20;;;;;;;99.53;39.03;;;-3.50;99.90;;;;;;5051216;27;20039;-75
2021/12/11 05:10:11;;;;;;;114.15;43.65;;;-3.50;99.90;;;;;;5049760;27;20057;-75
2021/12/11 05:12:37;;;;;;;119.60;42.58;;;-3.40;99.90;;;;;;5049616;27;20394;-76
2021/12/11 05:15:20;;;;;;;109.20;40.30;;;-3.40;99.90;;;;;;5050849;28;20029;-75
2021/12/11 05:17:46;;;;;;;129.40;43.63;;;-3.40;99.90;;;;;;5050917;28;20022;-76
2021/12/11 05:20:14;;;;;;;98.35;37.40;;;-3.40;99.90;;;;;;5049485;28;20025;-76
2021/12/11 05:22:40;;;;;;;133.82;44.53;;;-3.40;99.90;;;;;;5050761;28;20112;-76
2021/12/11 05:25:08;;;;;;;129.63;45.70;;;-3.40;99.90;;;;;;5049468;28;20097;-76
2021/12/11 05:27:34;;;;;;;133.02;42.42;;;-3.40;99.90;;;;;;5049451;28;20028;-76
2021/12/11 05:30:01;;;;;;;167.95;46.72;;;-3.40;99.90;;;;;;5049353;28;20120;-75
2021/12/11 05:32:27;;;;;;;150.80;49.35;;;-3.40;99.90;;;;;;5050611;28;20082;-75
2021/12/11 05:34:54;;;;;;;145.57;43.10;;;-3.40;99.90;;;;;;5050602;28;20041;-76
2021/12/11 05:37:20;;;;;;;134.32;42.20;;;-3.40;99.90;;;;;;5050511;28;20074;-76
2021/12/11 05:39:46;;;;;;;152.23;44.42;;;-3.40;99.90;;;;;;5050432;28;20036;-76
2021/12/11 05:42:12;;;;;;;171.75;47.20;;;-3.50;99.90;;;;;;5050478;28;20428;-76
2021/12/11 05:44:38;;;;;;;173.77;49.00;;;-3.50;99.90;;;;;;5050800;28;20053;-76
2021/12/11 05:47:05;;;;;;;186.38;47.08;;;-3.50;99.90;;;;;;5050420;28;20031;-76
2021/12/11 05:49:31;;;;;;;152.43;41.75;;;-3.60;99.90;;;;;;5049808;28;20470;-76
2021/12/11 05:52:01;;;;;;;214.32;53.78;;;-3.50;99.90;;;;;;5049101;28;20117;-76
2021/12/11 05:54:28;;;;;;;193.00;51.47;;;-3.60;99.90;;;;;;5050203;28;20452;-75
2021/12/11 05:57:00;;;;;;;123.60;45.80;;;-3.60;99.90;;;;;;5049026;28;20021;-76
2021/12/11 05:59:26;;;;;;;136.52;42.75;;;-3.60;99.90;;;;;;5050262;28;20100;-76
2021/12/11 06:02:00;;;;;;;175.10;42.65;;;-3.60;99.90;;;;;;5050217;28;20017;-76
2021/12/11 06:04:32;;;;;;;154.43;52.90;;;-3.50;99.90;;;;;;5050099;28;20108;-76
2021/12/11 06:06:59;;;;;;;263.08;61.00;;;-3.50;99.90;;;;;;5050174;28;20021;-75
2021/12/11 06:09:26;;;;;;;125.95;39.83;;;-3.50;99.90;;;;;;5049974;28;20029;-75
2021/12/11 06:11:54;;;;;;;225.60;54.70;;;-3.50;99.90;;;;;;5050104;28;20394;-76
2021/12/11 06:14:21;;;;;;;132.95;42.58;;;-3.50;99.90;;;;;;5077402;27;20416;-75
2021/12/11 06:16:50;;;;;;;119.30;40.15;;;-3.40;99.90;;;;;;5153431;27;20031;-75
2021/12/11 06:19:19;;;;;;;144.02;40.40;;;-3.50;99.90;;;;;;5154690;27;20071;-76
2021/12/11 06:21:45;;;;;;;233.38;50.03;;;-3.50;99.90;;;;;;5153354;27;20023;-75
2021/12/11 06:24:11;;;;;;;152.30;43.70;;;-3.50;99.90;;;;;;5153215;27;20063;-75
2021/12/11 06:26:37;;;;;;;157.65;42.22;;;-3.60;99.90;;;;;;5153388;27;20487;-75
2021/12/11 06:29:03;;;;;;;111.90;38.72;;;-3.60;99.90;;;;;;5154572;27;20026;-76
2021/12/11 06:31:29;;;;;;;118.80;39.50;;;-3.60;99.90;;;;;;5154593;27;20459;-75
2021/12/11 06:33:55;;;;;;;126.90;38.63;;;-3.60;99.90;;;;;;5154166;27;20054;-75
2021/12/11 06:36:23;;;;;;;173.88;45.45;;;-3.60;99.90;;;;;;5154536;27;20387;-76
2021/12/11 06:38:54;;;;;;;213.88;58.15;;;-3.60;99.90;;;;;;5154476;27;20019;-76
2021/12/11 06:41:25;;;;;;;259.83;62.42;;;-3.70;99.90;;;;;;5151481;27;20023;-76
2021/12/11 06:43:51;;;;;;;178.73;44.80;;;-3.70;99.90;;;;;;5154602;27;20059;-76
2021/12/11 06:46:17;;;;;;;181.98;42.30;;;-3.80;99.90;;;;;;5154177;27;20091;-77
2021/12/11 06:48:43;;;;;;;139.82;38.03;;;-4.00;99.90;;;;;;5153085;27;20031;-76
2021/12/11 06:51:09;;;;;;;197.07;41.50;;;-4.10;99.90;;;;;;5153090;27;20030;-76
2021/12/11 06:53:42;;;;;;;148.35;39.75;;;-4.20;99.90;;;;;;5137234;27;20403;-75
2021/12/11 06:56:09;;;;;;;193.48;43.92;;;-4.30;99.90;;;;;;5153589;27;20022;-75
2021/12/11 06:58:35;;;;;;;140.35;44.35;;;-4.40;99.90;;;;;;5146177;27;20113;-75
2021/12/11 07:01:03;;;;;;;164.82;46.05;;;-4.40;99.90;;;;;;5082519;27;20024;-76
2021/12/11 07:03:29;;;;;;;176.27;47.10;;;-4.40;99.90;;;;;;5051556;28;20078;-75
2021/12/11 07:05:55;;;;;;;170.52;49.65;;;-4.30;99.90;;;;;;5049896;28;20025;-76
2021/12/11 07:08:22;;;;;;;358.83;77.15;;;-4.40;99.90;;;;;;5044306;27;20021;-76
2021/12/11 07:10:48;;;;;;;241.82;61.85;;;-4.40;99.90;;;;;;5029004;28;20105;-76
2021/12/11 07:13:14;;;;;;;201.02;58.50;;;-4.50;99.90;;;;;;5028722;28;20586;-76
2021/12/11 07:15:41;;;;;;;178.18;51.55;;;-4.50;99.90;;;;;;5029474;28;20051;-76
2021/12/11 07:18:07;;;;;;;110.10;37.20;;;-4.50;99.90;;;;;;5029241;28;20045;-75
2021/12/11 07:20:33;;;;;;;104.53;40.88;;;-4.60;99.90;;;;;;5042443;27;20495;-76
2021/12/11 07:22:59;;;;;;;151.18;49.95;;;-4.70;99.90;;;;;;5071361;28;20107;-75
2021/12/11 07:25:46;;;;;;;137.15;51.38;;;-4.80;99.90;;;;;;5071317;28;20031;-75
2021/12/11 07:28:12;;;;;;;120.60;45.53;;;-4.90;99.90;;;;;;5072170;27;20019;-75
2021/12/11 07:30:41;;;;;;;76.93;33.05;;;-4.80;99.90;;;;;;5127504;27;20436;-75
2021/12/11 07:33:08;;;;;;;72.03;32.10;;;-4.80;99.90;;;;;;5048770;28;20029;-75
2021/12/11 07:35:35;;;;;;;76.38;33.35;;;-4.70;99.90;;;;;;5051229;28;20067;-75
2021/12/11 07:38:01;;;;;;;103.13;43.28;;;-4.60;99.90;;;;;;5051913;28;20050;-76
2021/12/11 07:40:31;;;;;;;118.55;48.85;;;-4.60;99.90;;;;;;5050169;28;20036;-76
2021/12/11 07:42:57;;;;;;;121.80;55.38;;;-4.60;99.90;;;;;;5051976;28;20467;-75
2021/12/11 07:45:25;;;;;;;104.18;47.05;;;-4.60;99.90;;;;;;5051353;28;20017;-76
2021/12/11 07:47:51;;;;;;;97.65;46.15;;;-4.60;99.90;;;;;;5051999;28;20077;-76
2021/12/11 07:50:18;;;;;;;86.15;43.78;;;-4.50;99.90;;;;;;5050697;28;20486;-76
2021/12/11 07:52:43;;;;;;;91.03;46.08;;;-4.50;99.90;;;;;;5047880;27;20033;-76
2021/12/11 07:55:10;;;;;;;114.97;48.33;;;-4.50;99.90;;;;;;5030110;28;20383;-75
2021/12/11 07:57:37;;;;;;;121.28;54.30;;;-4.50;99.90;;;;;;5030217;28;20455;-75
2021/12/11 08:00:06;;;;;;;116.10;52.42;;;-4.40;99.90;;;;;;5031288;28;20018;-76
2021/12/11 08:02:31;;;;;;;123.35;56.63;;;-4.20;99.90;;;;;;5039154;28;20514;-77
2021/12/11 08:04:57;;;;;;;124.65;57.28;;;-4.10;99.90;;;;;;5051467;28;20029;-76
2021/12/11 08:07:22;;;;;;;127.63;60.75;;;-4.00;99.90;;;;;;5051645;28;20021;-76
2021/12/11 08:09:48;;;;;;;140.93;66.32;;;-3.90;99.90;;;;;;5049900;28;20033;-76
2021/12/11 08:12:14;;;;;;;144.40;63.22;;;-3.70;99.90;;;;;;5049973;28;20029;-76
2021/12/11 08:14:40;;;;;;;139.10;67.55;;;-3.60;99.90;;;;;;5049732;28;20133;-75
2021/12/11 08:17:06;;;;;;;120.85;58.42;;;-3.40;99.90;;;;;;5049586;28;20037;-75
2021/12/11 08:19:33;;;;;;;123.68;58.47;;;-3.30;99.90;;;;;;5051054;28;20546;-75
2021/12/11 08:22:01;;;;;;;117.10;54.40;;;-3.20;99.90;;;;;;5049925;28;20033;-76
2021/12/11 08:24:28;;;;;;;125.03;59.45;;;-3.10;99.90;;;;;;5051144;27;20409;-75
2021/12/11 08:26:59;;;;;;;113.53;52.88;;;-3.00;99.90;;;;;;5049937;27;20474;-76
2021/12/11 08:29:25;;;;;;;111.18;51.08;;;-2.90;99.90;;;;;;5051174;27;20033;-76
2021/12/11 08:31:54;;;;;;;110.15;50.47;;;-2.80;99.90;;;;;;5050502;27;20114;-76
2021/12/11 08:34:20;;;;;;;110.65;52.70;;;-2.70;99.90;;;;;;5049171;27;20435;-75
2021/12/11 08:36:47;;;;;;;103.95;51.47;;;-2.60;99.90;;;;;;5050430;27;20040;-75
2021/12/11 08:39:16;;;;;;;100.35;50.35;;;-2.50;99.90;;;;;;5050967;27;20382;-76
2021/12/11 08:41:44;;;;;;;104.47;45.28;;;-2.40;99.90;;;;;;5050771;27;20110;-76
2021/12/11 08:44:13;;;;;;;77.13;37.85;;;-2.30;99.90;;;;;;5049707;27;20100;-76
2021/12/11 08:46:49;;;;;;;83.85;41.13;;;-2.20;99.90;;;;;;5049293;27;20047;-75
2021/12/11 08:49:20;;;;;;;86.00;42.53;;;-2.20;99.90;;;;;;5050806;28;20021;-75
2021/12/11 08:51:54;;;;;;;90.07;42.28;;;-2.10;99.90;;;;;;5049031;28;20040;-76
2021/12/11 08:54:22;;;;;;;89.88;44.38;;;-1.90;99.90;;;;;;5048431;28;20065;-75
2021/12/11 08:56:48;;;;;;;117.03;54.05;;;-1.80;99.90;;;;;;5100587;27;20025;-75
2021/12/11 08:59:17;;;;;;;198.88;90.22;;;-1.70;99.90;;;;;;5043592;28;20482;-76
2021/12/11 09:02:00;;;;;;;156.77;76.25;;;-1.60;99.90;;;;;;5116764;27;20031;-75
2021/12/11 09:04:55;;;;;;;160.63;71.20;;;-1.50;99.90;;;;;;5048685;28;20033;-76
2021/12/11 09:07:33;;;;;;;176.05;79.78;;;-1.50;99.90;;;;;;5026478;28;20064;-75
2021/12/11 09:10:18;;;;;;;186.43;81.57;;;-1.50;99.90;;;;;;5047770;28;20398;-75
2021/12/11 09:12:51;;;;;;;179.60;78.28;;;-1.40;99.90;;;;;;5048119;28;20110;-75
2021/12/11 09:15:19;;;;;;;162.55;77.57;;;-1.30;99.90;;;;;;5047228;28;20032;-76
2021/12/11 09:18:09;;;;;;;170.48;84.00;;;-1.30;99.90;;;;;;5047192;28;20040;-75
2021/12/11 09:20:45;;;;;;;182.80;81.40;;;-1.20;99.90;;;;;;5028071;28;20061;-75
2021/12/11 09:23:24;;;;;;;160.75;74.07;;;-1.10;99.90;;;;;;5040372;27;20037;-76
2021/12/11 09:26:24;;;;;;;166.82;76.38;;;-1.00;99.90;;;;;;5048201;28;20037;-76
2021/12/11 09:28:53;;;;;;;154.70;72.03;;;-1.00;99.90;;;;;;5049875;28;20036;-75
2021/12/11 09:31:22;;;;;;;154.77;69.18;;;-0.90;99.90;;;;;;5047606;28;20033;-75
2021/12/11 09:34:17;;;;;;;132.30;61.45;;;-0.80;99.90;;;;;;5046435;28;20037;-76
2021/12/11 09:36:47;;;;;;;112.78;61.03;;;-0.70;99.90;;;;;;5048482;28;20037;-75
2021/12/11 09:39:20;;;;;;;123.30;56.10;;;-0.60;99.90;;;;;;5048739;28;20021;-76
2021/12/11 09:41:45;;;;;;;106.53;52.35;;;-0.60;99.90;;;;;;5049750;28;20398;-75
2021/12/11 09:44:34;;;;;;;107.40;51.15;;;-0.60;99.90;;;;;;5046390;28;20033;-75
2021/12/11 09:47:09;;;;;;;98.32;50.85;;;-0.70;99.90;;;;;;5029459;28;20033;-75
2021/12/11 09:49:42;;;;;;;109.60;50.00;;;-0.60;99.90;;;;;;5029383;28;20021;-76
2021/12/11 09:52:17;;;;;;;128.82;59.65;;;-0.60;99.90;;;;;;5042644;28;20037;-75
2021/12/11 09:54:48;;;;;;;120.88;57.20;;;-0.50;99.90;;;;;;5048356;27;20113;-76
2021/12/11 09:57:18;;;;;;;110.82;52.10;;;-0.50;99.90;;;;;;5048210;27;20036;-75
2021/12/11 09:59:45;;;;;;;118.60;53.53;;;-0.40;99.90;;;;;;5048700;27;20123;-75
2021/12/11 10:02:20;;;;;;;102.40;49.60;;;-0.40;99.90;;;;;;5049523;28;20042;-76
2021/12/11 10:05:37;;;;;;;111.00;49.83;;;-0.40;99.90;;;;;;5047525;27;20024;-75
2021/12/11 10:11:05;;;;;;;119.50;59.60;;;-0.30;99.90;;;;;;5050057;28;20060;-76
2021/12/11 10:13:34;;;;;;;121.35;58.65;;;-0.20;99.90;;;;;;5049337;27;20073;-77
2021/12/11 10:16:01;;;;;;;113.57;55.25;;;-0.20;99.90;;;;;;5050025;28;20466;-77
2021/12/11 10:18:28;;;;;;;126.30;60.40;;;0.00;99.90;;;;;;5048622;28;20085;-76
2021/12/11 10:21:00;;;;;;;172.15;84.13;;;0.10;99.90;;;;;;5048948;28;20067;-76
2021/12/11 10:23:30;;;;;;;132.23;68.82;;;0.20;99.90;;;;;;5047685;28;20074;-76
2021/12/11 10:25:59;;;;;;;133.27;69.40;;;0.20;99.90;;;;;;5045475;27;20069;-76
2021/12/11 10:28:28;;;;;;;110.53;52.90;;;0.30;99.90;;;;;;5047698;28;20021;-76
2021/12/11 10:31:06;;;;;;;105.15;54.55;;;0.30;99.90;;;;;;5044833;27;20642;-76
2021/12/11 10:33:33;;;;;;;107.75;52.67;;;0.40;99.90;;;;;;5046926;28;20087;-76
2021/12/11 10:36:05;;;;;;;112.90;55.45;;;0.50;99.90;;;;;;5047407;28;20390;-78
2021/12/11 10:38:30;;;;;;;112.75;56.92;;;0.50;99.90;;;;;;5049628;27;20111;-77
2021/12/11 10:40:59;;;;;;;118.78;55.95;;;0.60;99.90;;;;;;5049179;28;20488;-77
2021/12/11 10:43:34;;;;;;;122.72;61.78;;;0.70;99.90;;;;;;5049181;28;20032;-77
2021/12/11 10:46:01;;;;;;;134.63;64.78;;;0.80;99.90;;;;;;5048285;27;20022;-77
2021/12/11 10:48:31;;;;;;;150.60;71.20;;;0.90;99.90;;;;;;5090539;27;20179;-76
2021/12/11 10:51:03;;;;;;;165.90;89.32;;;1.00;99.90;;;;;;5133677;27;20034;-77
2021/12/11 10:53:31;;;;;;;145.05;79.35;;;0.90;99.90;;;;;;5133217;27;20043;-77
2021/12/11 10:55:59;;;;;;;102.90;51.13;;;0.90;99.90;;;;;;5133410;27;20076;-77
2021/12/11 10:58:29;;;;;;;97.75;48.58;;;0.80;99.90;;;;;;5134056;27;20413;-77
2021/12/11 11:00:59;;;;;;;102.65;52.40;;;0.80;99.90;;;;;;5132916;27;20016;-77
2021/12/11 11:03:28;;;;;;;118.95;55.83;;;0.80;99.90;;;;;;5132832;27;20030;-77
2021/12/11 11:05:53;;;;;;;118.57;56.40;;;0.80;99.90;;;;;;5136014;27;20102;-77
2021/12/11 11:08:19;;;;;;;95.28;46.22;;;1.00;99.90;;;;;;5137373;27;20050;-77
2021/12/11 11:10:51;;;;;;;99.47;48.65;;;1.10;99.90;;;;;;5135998;27;20023;-77
2021/12/11 11:13:19;;;;;;;161.60;67.87;;;1.10;99.90;;;;;;5133533;27;20057;-77
2021/12/11 11:15:46;;;;;;;130.48;57.05;;;1.10;99.90;;;;;;5137115;27;20260;-77
2021/12/11 11:18:16;;;;;;;108.32;54.90;;;1.10;99.90;;;;;;5136494;27;20372;-77
2021/12/11 11:21:02;;;;;;;119.75;58.92;;;1.10;99.90;;;;;;5135580;27;20062;-77
2021/12/11 11:23:28;;;;;;;117.47;52.30;;;1.20;99.90;;;;;;5136274;27;20030;-77
2021/12/11 11:25:57;;;;;;;116.97;54.15;;;1.20;99.90;;;;;;5134669;27;20173;-77
2021/12/11 11:28:26;;;;;;;114.95;53.42;;;1.30;99.90;;;;;;5133400;27;20068;-77
2021/12/11 11:30:59;;;;;;;100.88;48.28;;;1.20;99.90;;;;;;5135173;27;20476;-77
2021/12/11 11:33:25;;;;;;;106.32;47.88;;;1.30;99.90;;;;;;5135992;27;20031;-77
2021/12/11 11:35:52;;;;;;;92.45;44.50;;;1.30;99.90;;;;;;5136863;27;20019;-77
2021/12/11 11:38:26;;;;;;;80.68;38.97;;;1.20;99.90;;;;;;5136727;27;20058;-77
2021/12/11 11:40:56;;;;;;;122.45;61.67;;;1.10;99.90;;;;;;5135438;27;20072;-78
2021/12/11 11:43:24;;;;;;;110.68;50.90;;;1.10;99.90;;;;;;5136354;27;20030;-77
2021/12/11 11:45:52;;;;;;;115.20;51.50;;;1.10;99.90;;;;;;5135280;27;20030;-77
2021/12/11 11:48:23;;;;;;;117.10;56.80;;;1.00;99.90;;;;;;5135214;27;20019;-77
2021/12/11 11:50:50;;;;;;;111.30;57.22;;;1.10;99.90;;;;;;5135514;27;20030;-77
2021/12/11 11:53:18;;;;;;;112.30;56.58;;;1.10;99.90;;;;;;5136352;27;20485;-77
2021/12/11 11:55:48;;;;;;;118.75;57.63;;;1.10;99.90;;;;;;5135775;27;20102;-77
2021/12/11 11:58:15;;;;;;;130.82;55.13;;;1.10;99.90;;;;;;5135078;27;20019;-77
2021/12/11 12:00:48;;;;;;;113.55;54.08;;;1.00;99.90;;;;;;5136380;27;20016;-77
2021/12/11 12:03:20;;;;;;;113.90;55.13;;;1.00;99.90;;;;;;5135857;27;20023;-77
2021/12/11 12:05:51;;;;;;;129.43;57.17;;;1.00;99.90;;;;;;5136183;27;20030;-77
2021/12/11 12:08:18;;;;;;;118.07;57.65;;;1.00;99.90;;;;;;5136018;27;20036;-77
2021/12/11 12:10:45;;;;;;;127.35;56.78;;;1.10;99.90;;;;;;5135740;27;20026;-77
2021/12/11 12:13:12;;;;;;;120.50;56.65;;;1.10;99.90;;;;;;5134412;27;20033;-77
2021/12/11 12:15:43;;;;;;;123.50;56.70;;;1.10;99.90;;;;;;5134297;27;20096;-77
2021/12/11 12:18:10;;;;;;;113.80;55.25;;;1.10;99.90;;;;;;5133547;27;20038;-77
2021/12/11 12:20:40;;;;;;;117.72;58.20;;;1.10;99.90;;;;;;5135114;27;20019;-77
2021/12/11 12:23:06;;;;;;;114.03;55.65;;;1.10;99.90;;;;;;5120720;27;20031;-77
2021/12/11 12:25:32;;;;;;;133.48;63.53;;;1.10;99.90;;;;;;5050343;28;20078;-78
2021/12/11 12:27:58;;;;;;;141.15;69.63;;;1.10;99.90;;;;;;5049475;28;20112;-77
2021/12/11 12:30:46;;;;;;;120.22;59.70;;;1.10;99.90;;;;;;5047525;28;20027;-77
2021/12/11 12:33:14;;;;;;;115.78;56.55;;;1.10;99.90;;;;;;5050259;28;20045;-77
2021/12/11 12:35:40;;;;;;;110.10;54.63;;;1.10;99.90;;;;;;5049993;28;20474;-77
2021/12/11 12:38:09;;;;;;;105.63;54.22;;;1.10;99.90;;;;;;5047137;28;20053;-77
2021/12/11 12:40:48;;;;;;;102.03;50.03;;;1.10;99.90;;;;;;5051232;28;20100;-77
2021/12/11 12:43:41;;;;;;;100.13;48.05;;;1.10;99.90;;;;;;5051311;28;20474;-77
2021/12/11 12:46:05;;;;;;;96.03;47.20;;;1.10;99.90;;;;;;5051239;27;20082;-77
2021/12/11 12:48:30;;;;;;;95.68;46.83;;;1.10;99.90;;;;;;5051300;28;20035;-77